Waco, TX

1:24 AM CST on February 06, 2016 (GMT -0600)
Greenleaf Peninsula | | Change Station
CLOSE
Current Station
Personal Weather Station
Location: Waco, TX
Elevation: 580 ft
Nearby Weather Stations

Elev 580 ft 31.56 °N, 97.20 °W | Updated 4 minutes ago

Rain
Rain
44.0 °F
Feels Like 39 °F
N
8.0
Wind Variable Wind from South
Gusts 11.0 mph

Today
High -- | Low -- °F
--% Chance of Precip.
Yesterday
High -- | Low -- °F
Precip. -- in
Pressure 30.27 in
Visibility 10.0 miles
Clouds Few 1700 ft
Few 8000 ft
Windchill 39 °F
Dew Point 40 °F
Humidity 86%
Rainfall 0.05 in
Snow Depth Not available.
7:18 AM 6:07 PM
Waning Crescent, 7% visible
METAR KACT 060651Z 18011KT 10SM FEW017 FEW080 07/04 A3027 RMK AO2 RAB0554E37 SLP249 P0003 T00670039
Pressure 30.27 in
Visibility 10.0 miles
Clouds Few 1700 ft
Few 8000 ft
Windchill 39 °F
Dew Point 40 °F
Humidity 86%
Rainfall 0.05 in
Snow Depth Not available.
7:18 AM 6:07 PM
Waning Crescent, 7% visible
METAR KACT 060651Z 18011KT 10SM FEW017 FEW080 07/04 A3027 RMK AO2 RAB0554E37 SLP249 P0003 T00670039

10-Day Weather Forecast

Almanac

Astronomy

Feb. 06, 2016 Rise Set
Actual Time
Civil Twilight
Nautical Twilight
Astronomical Twilight
Moon
Length of Visible Light
Length of Day
Tomorrow will be .
, % of the Moon is Illuminated

Today's Extremes

State Highs State Lows

Community

WunderPhotos

Upload Photos

1,890,933 photos uploaded!

WunderBlog® & News

Nearby

Air Quality

  Air Quality AQ Index Pollutant
Not available.

Snow Depth

Station Depth Elevation

Earthquake Activity

City Distance Mag. Time & Date
Minimum magnitude displayed is 2.5.

Coastal Water Temperatures

Place Temperature

Stations

Nearby Weather Stations

Station Location Temp. Windchill Dew Point Humidity Wind Precip. Elev Updated Type
                   

Watches & Warnings

There are currently no watches in effect.